createdAt,value
2023-03-24T00:00:14.763Z,4.50
2023-03-24T00:04:17.892Z,4.60
2023-03-24T00:08:18.959Z,4.10
2023-03-24T00:12:19.986Z,4.50
2023-03-24T00:16:22.267Z,4.50
2023-03-24T00:20:27.578Z,4.13
2023-03-24T00:24:28.278Z,4.50
2023-03-24T00:28:28.806Z,4.80
2023-03-24T00:32:30.754Z,4.50
2023-03-24T00:36:34.134Z,4.70
2023-03-24T00:40:34.862Z,4.57
2023-03-24T00:44:36.585Z,4.80
2023-03-24T00:48:39.033Z,5.17
2023-03-24T00:52:44.687Z,4.60
2023-03-24T00:56:50.194Z,4.63
2023-03-24T01:00:53.440Z,4.27
2023-03-24T01:04:57.661Z,4.27
2023-03-24T01:09:03.076Z,4.67
2023-03-24T01:13:05.669Z,4.20
2023-03-24T01:17:08.022Z,4.63
2023-03-24T01:21:09.657Z,4.70
2023-03-24T01:25:17.030Z,4.50
2023-03-24T01:29:17.499Z,4.60
2023-03-24T01:33:19.640Z,5.13
2023-03-24T01:37:20.299Z,5.10
2023-03-24T01:41:23.748Z,4.97
2023-03-24T01:45:59.093Z,4.90
2023-03-24T01:50:05.696Z,5.23
2023-03-24T01:54:11.739Z,4.83
2023-03-24T01:58:15.283Z,5.23
2023-03-24T02:02:39.308Z,5.10
2023-03-24T02:06:44.270Z,5.40
2023-03-24T02:10:48.172Z,5.10
2023-03-24T02:14:52.495Z,5.13
2023-03-24T02:19:15.069Z,5.30
2023-03-24T02:23:50.515Z,5.30
2023-03-24T02:28:21.142Z,5.50
2023-03-24T02:33:14.287Z,5.73
2023-03-24T02:38:12.132Z,5.83
2023-03-24T02:42:29.954Z,6.00
2023-03-24T02:46:43.398Z,5.77
2023-03-24T02:50:52.922Z,6.33
2023-03-24T02:55:03.861Z,6.60
2023-03-24T02:59:12.928Z,5.90
2023-03-24T03:03:24.224Z,10.07
2023-03-24T03:07:33.834Z,18.10
2023-03-24T03:11:34.610Z,6.50
2023-03-24T03:15:42.514Z,5.87
2023-03-24T03:19:48.403Z,6.10
2023-03-24T03:23:55.725Z,6.97
2023-03-24T03:28:00.866Z,6.70
2023-03-24T03:32:08.933Z,6.67
2023-03-24T03:36:18.741Z,7.00
2023-03-24T03:40:26.126Z,7.40
2023-03-24T03:44:34.486Z,5.87
2023-03-24T03:48:39.816Z,5.60
2023-03-24T03:52:44.939Z,5.10
2023-03-24T03:56:47.163Z,5.50
2023-03-24T04:00:56.373Z,5.67
2023-03-24T04:05:33.515Z,5.63
2023-03-24T04:10:05.410Z,5.30
2023-03-24T04:14:26.649Z,5.00
2023-03-24T04:19:14.398Z,4.90
2023-03-24T04:23:30.997Z,5.17
2023-03-24T04:27:43.149Z,5.23
2023-03-24T04:31:53.764Z,5.70
2023-03-24T04:36:06.774Z,5.70
2023-03-24T04:40:27.380Z,5.73
2023-03-24T04:44:30.424Z,5.30
2023-03-24T04:48:51.297Z,5.17
2023-03-24T04:53:04.265Z,5.37
2023-03-24T04:57:09.005Z,5.40
2023-03-24T05:01:21.647Z,5.77
2023-03-24T05:05:42.341Z,5.00
2023-03-24T05:09:45.861Z,5.20
2023-03-24T05:13:50.153Z,5.50
2023-03-24T05:17:52.066Z,5.37
2023-03-24T05:21:54.572Z,5.30
2023-03-24T05:25:55.294Z,5.20
2023-03-24T05:30:00.620Z,5.20
2023-03-24T05:34:04.038Z,5.80
2023-03-24T05:38:07.598Z,5.13
2023-03-24T05:42:08.391Z,5.50
2023-03-24T05:46:12.080Z,5.43
2023-03-24T05:50:14.162Z,5.03
2023-03-24T05:54:14.982Z,5.30
2023-03-24T05:58:17.541Z,5.17
2023-03-24T06:02:25.616Z,5.50
2023-03-24T06:06:32.722Z,5.80
2023-03-24T06:10:33.444Z,7.80
2023-03-24T06:14:34.481Z,5.07
2023-03-24T06:18:44.518Z,5.30
2023-03-24T06:22:59.253Z,5.67
2023-03-24T06:27:09.090Z,5.23
2023-03-24T06:31:18.846Z,5.40
2023-03-24T06:35:22.486Z,5.80
2023-03-24T06:39:33.600Z,7.00
2023-03-24T06:43:35.690Z,5.73
2023-03-24T06:47:36.329Z,5.17
2023-03-24T06:51:41.049Z,5.20
2023-03-24T06:55:42.209Z,4.90
2023-03-24T06:59:45.054Z,4.97
2023-03-24T07:03:46.438Z,4.27
2023-03-24T07:08:27.856Z,4.30
2023-03-24T07:12:16.654Z,4.43
2023-03-24T07:16:18.546Z,4.80
2023-03-24T07:20:26.539Z,4.50
2023-03-24T07:24:52.236Z,4.63
2023-03-24T07:29:12.184Z,4.63
2023-03-24T07:33:35.822Z,4.40
2023-03-24T07:37:36.704Z,4.00
2023-03-24T07:41:40.480Z,4.60
2023-03-24T07:45:49.513Z,5.20
2023-03-24T07:49:54.319Z,5.67
2023-03-24T07:53:55.349Z,5.10
2023-03-24T07:58:10.556Z,4.87
2023-03-24T08:02:22.378Z,4.50
2023-03-24T08:07:00.985Z,4.50
2023-03-24T08:11:03.465Z,4.60
2023-03-24T08:15:09.892Z,4.37
2023-03-24T08:19:10.723Z,4.50
2023-03-24T08:23:11.472Z,4.93
2023-03-24T08:27:11.912Z,4.50
2023-03-24T08:31:16.529Z,4.60
2023-03-24T08:35:20.368Z,4.17
2023-03-24T08:39:21.222Z,4.30
2023-03-24T08:43:23.487Z,4.13
2023-03-24T08:47:26.627Z,4.03
2023-03-24T08:51:27.344Z,3.70
2023-03-24T08:55:31.184Z,3.78
2023-03-24T08:59:32.543Z,4.40
2023-03-24T09:03:36.817Z,4.10
2023-03-24T09:07:40.177Z,4.15
2023-03-24T09:11:41.885Z,3.50
2023-03-24T09:15:49.027Z,3.55
2023-03-24T09:19:52.462Z,3.47
2023-03-24T09:23:53.055Z,3.42
2023-03-24T09:27:57.744Z,3.22
2023-03-24T09:32:00.573Z,2.80
2023-03-24T09:36:08.073Z,2.83
2023-03-24T09:40:11.283Z,3.08
2023-03-24T09:44:26.548Z,3.77
2023-03-24T09:48:38.107Z,3.60
2023-03-24T09:52:47.221Z,3.97
2023-03-24T09:56:51.683Z,4.20
2023-03-24T10:00:54.607Z,4.50
2023-03-24T10:04:59.666Z,4.17
2023-03-24T10:09:25.606Z,4.27
2023-03-24T10:13:35.775Z,4.30
2023-03-24T10:17:51.250Z,4.57
2023-03-24T10:22:03.649Z,4.40
2023-03-24T10:26:20.256Z,4.40
2023-03-24T10:30:26.861Z,4.10
2023-03-24T10:34:35.035Z,4.10
2023-03-24T10:38:35.858Z,4.00
2023-03-24T10:42:42.021Z,3.43
2023-03-24T10:46:51.307Z,3.20
2023-03-24T10:50:52.453Z,2.70
2023-03-24T10:54:59.486Z,2.30
2023-03-24T10:59:07.336Z,2.30
2023-03-24T11:03:19.073Z,2.20
2023-03-24T11:07:26.752Z,1.75
2023-03-24T11:11:36.801Z,2.00
2023-03-24T11:16:01.366Z,1.60
2023-03-24T11:20:02.156Z,1.88
2023-03-24T11:24:05.783Z,1.83
2023-03-24T11:28:11.893Z,1.77
2023-03-24T11:32:25.132Z,1.60
2023-03-24T11:36:52.054Z,1.50
2023-03-24T11:41:02.835Z,1.70
2023-03-24T11:45:04.959Z,1.60
2023-03-24T11:49:08.973Z,1.77
2023-03-24T11:53:20.340Z,1.40
2023-03-24T11:57:45.444Z,1.45
2023-03-24T12:01:55.714Z,3.22
2023-03-24T12:06:15.822Z,1.90
2023-03-24T12:10:29.179Z,1.80
2023-03-24T12:14:48.288Z,1.80
2023-03-24T12:19:37.705Z,1.63
2023-03-24T12:23:52.874Z,2.08
2023-03-24T12:28:08.922Z,2.20
2023-03-24T12:32:23.701Z,2.30
2023-03-24T12:36:47.143Z,2.42
2023-03-24T12:41:18.825Z,2.15
2023-03-24T12:45:49.923Z,3.30
2023-03-24T12:50:15.305Z,2.50
2023-03-24T12:54:34.425Z,2.40
2023-03-24T12:58:47.455Z,2.70
2023-03-24T13:02:57.709Z,2.40
2023-03-24T13:07:07.377Z,2.67
2023-03-24T13:11:30.064Z,2.53
2023-03-24T13:15:44.500Z,2.33
2023-03-24T13:19:46.138Z,2.20
2023-03-24T13:23:57.805Z,1.90
2023-03-24T13:28:06.954Z,2.03
2023-03-24T13:32:17.470Z,1.80
2023-03-24T13:36:45.959Z,2.70
2023-03-24T13:40:51.088Z,1.60
2023-03-24T13:44:53.625Z,1.70
2023-03-24T13:49:03.453Z,1.80
2023-03-24T13:53:15.735Z,1.70
2023-03-24T13:57:24.437Z,1.70
2023-03-24T14:01:40.501Z,1.63
2023-03-24T14:06:05.142Z,1.38
2023-03-24T14:10:44.232Z,1.10
2023-03-24T14:15:19.603Z,1.33
2023-03-24T14:19:27.112Z,1.20
2023-03-24T14:23:41.014Z,1.27
2023-03-24T14:27:44.443Z,1.20
2023-03-24T14:31:48.054Z,1.40
2023-03-24T14:35:52.191Z,1.40
2023-03-24T14:39:57.622Z,1.70
2023-03-24T14:44:03.166Z,1.40
2023-03-24T14:48:06.177Z,1.50
2023-03-24T14:52:19.071Z,1.60
2023-03-24T14:56:26.118Z,2.80
2023-03-24T15:00:36.553Z,1.80
2023-03-24T15:04:40.051Z,3.03
2023-03-24T15:08:42.847Z,2.20
2023-03-24T15:12:51.779Z,1.95
2023-03-24T15:16:58.860Z,2.37
2023-03-24T15:20:59.461Z,2.80
2023-03-24T15:25:01.989Z,2.83
2023-03-24T15:29:09.506Z,1.93
2023-03-24T15:33:14.343Z,2.40
2023-03-24T15:37:26.277Z,1.67
2023-03-24T15:41:26.884Z,2.20
2023-03-24T15:45:33.931Z,1.60
2023-03-24T15:49:37.899Z,1.80
2023-03-24T15:53:49.571Z,1.90
2023-03-24T15:57:52.001Z,1.90
2023-03-24T16:01:56.342Z,1.43
2023-03-24T16:06:01.828Z,1.50
2023-03-24T16:10:10.265Z,1.23
2023-03-24T16:14:33.614Z,1.40
2023-03-24T16:18:41.097Z,1.37
2023-03-24T16:22:57.269Z,1.33
2023-03-24T16:26:57.812Z,1.20
2023-03-24T16:31:04.086Z,1.37
2023-03-24T16:35:04.854Z,1.20
2023-03-24T16:39:18.825Z,1.20
2023-03-24T16:43:20.003Z,1.10
2023-03-24T16:47:20.466Z,1.30
2023-03-24T16:51:22.146Z,1.00
2023-03-24T16:55:26.418Z,1.20
2023-03-24T16:59:27.413Z,1.70
2023-03-24T17:03:30.181Z,3.40
2023-03-24T17:07:31.411Z,2.50
2023-03-24T17:11:38.963Z,1.67
2023-03-24T17:15:39.401Z,2.00
2023-03-24T17:19:42.179Z,1.50
2023-03-24T17:23:44.434Z,1.60
2023-03-24T17:27:48.229Z,1.70
2023-03-24T17:31:48.849Z,1.67
2023-03-24T17:35:49.492Z,2.10
2023-03-24T17:39:49.933Z,2.13
2023-03-24T17:43:54.829Z,1.93
2023-03-24T17:47:56.567Z,2.40
2023-03-24T17:51:57.948Z,2.20
2023-03-24T17:56:06.071Z,2.67
2023-03-24T18:00:15.032Z,2.13
2023-03-24T18:04:17.845Z,1.80
2023-03-24T18:08:20.485Z,2.70
2023-03-24T18:12:24.285Z,4.13
2023-03-24T18:16:31.147Z,4.60
2023-03-24T18:20:33.062Z,2.87
2023-03-24T18:24:36.672Z,4.60
2023-03-24T18:28:40.083Z,4.23
2023-03-24T18:32:45.604Z,2.90
2023-03-24T18:36:50.582Z,3.47
2023-03-24T18:40:59.719Z,2.33
2023-03-24T18:45:02.818Z,2.30
2023-03-24T18:49:08.502Z,2.30
2023-03-24T18:53:10.264Z,2.60
2023-03-24T18:57:12.881Z,2.60
2023-03-24T19:01:23.272Z,2.60
2023-03-24T19:05:30.015Z,2.90
2023-03-24T19:09:32.602Z,3.30
2023-03-24T19:13:35.384Z,5.73
2023-03-24T19:17:37.595Z,6.87
2023-03-24T19:21:44.269Z,4.47
2023-03-24T19:25:46.875Z,5.40
2023-03-24T19:29:51.079Z,4.40
2023-03-24T19:33:54.589Z,5.37
2023-03-24T19:38:00.341Z,4.10
2023-03-24T19:42:04.667Z,4.00
2023-03-24T19:46:08.144Z,4.40
2023-03-24T19:50:11.689Z,4.77
2023-03-24T19:54:18.485Z,3.93
2023-03-24T19:58:21.877Z,5.67
2023-03-24T20:02:25.297Z,4.73
2023-03-24T20:06:28.298Z,5.33
2023-03-24T20:10:32.825Z,7.80
2023-03-24T20:14:37.579Z,7.33
2023-03-24T20:18:40.767Z,3.93
2023-03-24T20:22:46.123Z,4.07
2023-03-24T20:26:49.395Z,3.63
2023-03-24T20:30:52.119Z,4.80
2023-03-24T20:34:53.021Z,5.40
2023-03-24T20:38:53.681Z,8.50
2023-03-24T20:42:56.733Z,5.60
2023-03-24T20:46:59.363Z,4.87
2023-03-24T20:51:00.297Z,4.33
2023-03-24T20:55:01.668Z,3.97
2023-03-24T20:59:07.069Z,4.50
2023-03-24T21:03:08.061Z,4.20
2023-03-24T21:07:08.747Z,4.30
2023-03-24T21:11:09.810Z,2.27
2023-03-24T21:15:14.197Z,2.77
2023-03-24T21:19:16.364Z,3.60
2023-03-24T21:23:18.768Z,3.60
2023-03-24T21:27:21.824Z,2.83
2023-03-24T21:31:29.122Z,5.07
2023-03-24T21:35:31.753Z,3.83
2023-03-24T21:39:32.923Z,3.00
2023-03-24T21:43:35.111Z,3.00
2023-03-24T21:47:38.745Z,3.60
2023-03-24T21:51:43.011Z,2.27
2023-03-24T21:55:44.527Z,2.10
2023-03-24T21:59:45.125Z,1.83
2023-03-24T22:03:48.181Z,1.70
2023-03-24T22:07:50.360Z,2.10
2023-03-24T22:11:53.157Z,2.00
2023-03-24T22:15:58.022Z,2.10
2023-03-24T22:20:01.487Z,2.87
2023-03-24T22:24:02.269Z,2.23
2023-03-24T22:28:03.020Z,1.90
2023-03-24T22:32:04.112Z,2.00
2023-03-24T22:36:08.952Z,2.00
2023-03-24T22:40:13.643Z,1.80
2023-03-24T22:44:15.969Z,1.77
2023-03-24T22:48:16.391Z,1.80
2023-03-24T22:52:19.617Z,1.60
2023-03-24T22:56:20.704Z,1.90
2023-03-24T23:00:22.873Z,1.90
2023-03-24T23:04:23.957Z,1.80
2023-03-24T23:08:29.780Z,2.00
2023-03-24T23:12:32.397Z,1.80
2023-03-24T23:16:33.430Z,1.70
2023-03-24T23:20:33.998Z,2.00
2023-03-24T23:24:39.765Z,2.00
2023-03-24T23:28:40.468Z,1.80
2023-03-24T23:32:44.367Z,2.00
2023-03-24T23:36:50.112Z,1.77
2023-03-24T23:40:53.413Z,1.80
2023-03-24T23:44:54.186Z,1.80
2023-03-24T23:48:54.998Z,1.80
2023-03-24T23:52:55.621Z,1.60
2023-03-24T23:56:58.558Z,1.93
